createdAt,value
2022-09-27T00:04:15.563Z,2.6
2022-09-27T00:10:35.577Z,2.6
2022-09-27T00:16:58.532Z,2.2
2022-09-27T00:23:18.544Z,2.2
2022-09-27T00:29:41.568Z,4.3
2022-09-27T00:36:01.565Z,4.3
2022-09-27T00:42:24.599Z,2.9
2022-09-27T00:48:44.584Z,2.9
2022-09-27T00:55:07.652Z,1.1
2022-09-27T01:01:27.541Z,1.1
2022-09-27T01:07:50.623Z,1.6
2022-09-27T01:14:10.581Z,1.6
2022-09-27T01:20:33.539Z,2.3
2022-09-27T01:26:53.506Z,2.3
2022-09-27T01:33:16.558Z,2.7
2022-09-27T01:39:36.599Z,2.7
2022-09-27T01:45:59.605Z,2.6
2022-09-27T01:52:19.612Z,2.6
2022-09-27T01:58:42.524Z,0.7
2022-09-27T02:05:02.569Z,0.7
2022-09-27T02:11:25.556Z,1.3
2022-09-27T02:17:45.670Z,1.3
2022-09-27T02:24:08.574Z,0.7
2022-09-27T02:30:28.653Z,0.7
2022-09-27T02:36:51.611Z,1.6
2022-09-27T02:43:11.695Z,1.6
2022-09-27T02:49:34.657Z,2.4
2022-09-27T02:55:54.528Z,2.4
2022-09-27T03:02:17.668Z,1.6
2022-09-27T03:08:37.627Z,1.6
2022-09-27T03:15:00.593Z,1.8
2022-09-27T03:37:49.048Z,1.7
2022-09-27T03:44:08.486Z,1.7
2022-09-27T03:50:31.533Z,1.3
2022-09-27T03:56:51.537Z,1.3
2022-09-27T04:03:14.538Z,2
2022-09-27T04:09:34.546Z,2
2022-09-27T04:15:57.617Z,2
2022-09-27T04:22:17.565Z,2
2022-09-27T04:28:40.552Z,1.5
2022-09-27T04:35:00.524Z,1.5
2022-09-27T04:41:23.515Z,1.4
2022-09-27T04:47:43.471Z,1.4
2022-09-27T04:54:06.662Z,0.5
2022-09-27T05:00:26.598Z,0.5
2022-09-27T05:06:52.526Z,1.5
2022-09-27T05:13:09.581Z,1.5
2022-09-27T05:19:32.513Z,2.1
2022-09-27T05:25:52.544Z,2.1
2022-09-27T05:32:15.601Z,2.6
2022-09-27T05:38:35.632Z,2.6
2022-09-27T05:44:58.631Z,0.4
2022-09-27T05:51:18.567Z,0.4
2022-09-27T05:57:41.603Z,0.7
2022-09-27T06:04:01.643Z,0.7
2022-09-27T06:10:24.671Z,11.4
2022-09-27T06:16:44.545Z,11.4
2022-09-27T06:23:07.522Z,0.6
2022-09-27T06:29:27.538Z,0.6
2022-09-27T06:35:50.492Z,1.1
2022-09-27T06:42:10.523Z,1.1
2022-09-27T06:48:33.629Z,0.8
2022-09-27T06:54:53.657Z,0.8
2022-09-27T07:01:16.675Z,1.9
2022-09-27T07:07:36.507Z,1.9
2022-09-27T07:13:59.675Z,1
2022-09-27T07:20:19.572Z,1
2022-09-27T07:26:42.588Z,1
2022-09-27T07:33:02.535Z,1
2022-09-27T07:39:25.546Z,1.4
2022-09-27T07:45:45.602Z,1.4
2022-09-27T07:52:08.538Z,0.6
2022-09-27T07:58:28.507Z,0.6
2022-09-27T08:04:51.634Z,2.2
2022-09-27T08:11:11.593Z,2.2
2022-09-27T08:17:34.576Z,0.5
2022-09-27T08:23:54.537Z,0.5
2022-09-27T08:30:17.512Z,0.7
2022-09-27T08:45:48.463Z,0.4
2022-09-27T08:52:08.472Z,0.4
2022-09-27T08:58:31.469Z,1.2
2022-09-27T09:04:51.551Z,1.2
2022-09-27T09:11:14.537Z,1.2
2022-09-27T09:17:34.691Z,1.2
2022-09-27T09:23:57.697Z,1.3
2022-09-27T09:30:18.028Z,1.3
2022-09-27T09:36:40.517Z,0.8
2022-09-27T09:43:01.803Z,0.8
2022-09-27T09:49:24.611Z,0.7
2022-09-27T09:55:44.530Z,0.7
2022-09-27T10:02:07.628Z,0.8
2022-09-27T10:08:27.543Z,0.8
2022-09-27T10:14:50.494Z,0.4
2022-09-27T10:21:10.612Z,0.4
2022-09-27T10:27:33.511Z,0.4
2022-09-27T10:33:53.593Z,0.4
2022-09-27T10:40:16.634Z,1.2
2022-09-27T10:46:36.535Z,1.2
2022-09-27T10:52:59.550Z,0.3
2022-09-27T10:59:19.544Z,0.3
2022-09-27T11:05:42.548Z,0.4
2022-09-27T11:12:02.497Z,0.4
2022-09-27T11:18:25.562Z,0.5
2022-09-27T11:24:45.546Z,0.5
2022-09-27T11:31:08.516Z,0.4
2022-09-27T11:37:28.563Z,0.4
2022-09-27T11:43:51.579Z,0.8
2022-09-27T11:50:11.548Z,0.8
2022-09-27T11:56:34.660Z,0.7
2022-09-27T12:02:54.616Z,0.7
2022-09-27T12:09:17.617Z,0.2
2022-09-27T12:15:37.639Z,0.2
2022-09-27T12:22:00.505Z,0.6
2022-09-27T12:28:23.520Z,0.6
2022-09-27T12:34:43.597Z,0.4
2022-09-27T12:41:03.624Z,0.4
2022-09-27T12:47:26.737Z,0.2
2022-09-27T12:53:46.809Z,0.2
2022-09-27T13:00:09.793Z,0.7
2022-09-27T13:06:29.576Z,0.7
2022-09-27T13:12:52.575Z,0.7
2022-09-27T13:19:12.533Z,0.7
2022-09-27T13:25:35.547Z,0.7
2022-09-27T13:31:55.586Z,0.7
2022-09-27T13:38:18.765Z,1
2022-09-27T13:54:43.184Z,0.6
2022-09-27T14:01:06.142Z,1.1
2022-09-27T14:07:25.650Z,1.1
2022-09-27T14:13:48.605Z,1.1
2022-09-27T14:20:08.467Z,1.1
2022-09-27T14:26:31.536Z,0.9
2022-09-27T14:32:51.565Z,0.9
2022-09-27T14:39:14.590Z,0.6
2022-09-27T14:45:34.621Z,0.6
2022-09-27T14:51:57.501Z,0.4
2022-09-27T14:58:35.888Z,0.4
2022-09-27T15:04:40.903Z,0.5
2022-09-27T15:11:00.815Z,0.5
2022-09-27T15:17:23.817Z,0.7
2022-09-27T15:23:43.498Z,0.7
2022-09-27T15:30:07.159Z,0.5
2022-09-27T15:36:26.513Z,0.5
2022-09-27T15:42:49.563Z,0.1
2022-09-27T15:49:09.562Z,0.1
2022-09-27T15:55:32.564Z,0.4
2022-09-27T16:01:52.689Z,0.4
2022-09-27T16:08:15.535Z,0.5
2022-09-27T16:14:35.565Z,0.5
2022-09-27T16:20:58.948Z,0.3
2022-09-27T16:27:18.655Z,0.3
2022-09-27T16:33:41.800Z,0.2
2022-09-27T16:40:01.498Z,0.2
2022-09-27T16:46:24.638Z,0.1
2022-09-27T16:52:44.811Z,0.1
2022-09-27T16:59:07.583Z,0.8
2022-09-27T17:05:27.624Z,0.8
2022-09-27T17:11:50.579Z,1.3
2022-09-27T17:18:10.472Z,1.3
2022-09-27T17:24:33.519Z,0.4
2022-09-27T17:30:53.696Z,0.4
2022-09-27T17:37:16.496Z,1.2
2022-09-27T17:43:36.563Z,1.2
2022-09-27T17:49:59.480Z,0.7
2022-09-27T17:56:19.512Z,0.7
2022-09-27T18:02:42.600Z,1.3
2022-09-27T18:09:02.483Z,1.3
2022-09-27T18:15:25.496Z,1.6
2022-09-27T18:21:45.506Z,1.6
2022-09-27T18:28:08.856Z,2.7
2022-09-27T18:34:28.466Z,2.7
2022-09-27T18:40:56.390Z,2
2022-09-27T19:04:40.423Z,2.3
2022-09-27T19:11:00.493Z,2.3
2022-09-27T19:17:23.558Z,0.8
2022-09-27T19:23:43.557Z,0.8
2022-09-27T19:30:06.523Z,2.6
2022-09-27T19:36:26.511Z,2.6
2022-09-27T19:42:49.543Z,2.7
2022-09-27T19:49:09.867Z,2.7
2022-09-27T19:55:32.538Z,2.3
2022-09-27T20:01:52.587Z,2.3
2022-09-27T20:08:15.571Z,3.2
2022-09-27T20:14:35.495Z,3.2
2022-09-27T20:20:58.580Z,2.3
2022-09-27T20:27:18.669Z,2.3
2022-09-27T20:33:41.541Z,2.6
2022-09-27T20:40:01.542Z,2.6
2022-09-27T20:46:24.588Z,2.7
2022-09-27T20:52:45.070Z,2.7
2022-09-27T20:59:10.413Z,3.3
2022-09-27T21:05:27.688Z,3.3
2022-09-27T21:11:50.499Z,2.7
2022-09-27T21:18:10.564Z,2.7
2022-09-27T21:24:33.529Z,1.5
2022-09-27T21:30:53.528Z,1.5
2022-09-27T21:37:16.593Z,1.2
2022-09-27T21:43:36.530Z,1.2
2022-09-27T21:49:59.508Z,0.9
2022-09-27T21:56:19.546Z,0.9
2022-09-27T22:21:53.522Z,5
2022-09-27T22:28:13.512Z,5
2022-09-27T22:34:36.559Z,5
2022-09-27T22:40:56.672Z,5
2022-09-27T22:47:19.601Z,1.6
2022-09-27T22:53:39.540Z,1.6
2022-09-27T23:00:02.532Z,1.9
2022-09-27T23:06:22.589Z,1.9
2022-09-27T23:12:45.521Z,1.9
2022-09-27T23:19:05.576Z,1.9
2022-09-27T23:25:28.545Z,1.3
2022-09-27T23:31:48.541Z,1.3
2022-09-27T23:38:11.555Z,2.3
2022-09-27T23:44:31.544Z,2.3
2022-09-27T23:50:54.509Z,1.9
2022-09-27T23:57:14.541Z,1.9
